createdAt,value
2017-12-12T00:00:06.182Z,978.02
2017-12-12T00:01:06.193Z,978.01
2017-12-12T00:02:06.206Z,978.04
2017-12-12T00:03:06.215Z,978.08
2017-12-12T00:04:06.226Z,978.07
2017-12-12T00:05:06.235Z,978.08
2017-12-12T00:06:06.251Z,978.09
2017-12-12T00:07:06.260Z,978.15
2017-12-12T00:08:06.271Z,978.15
2017-12-12T00:09:06.282Z,978.21
2017-12-12T00:10:06.291Z,978.27
2017-12-12T00:11:06.302Z,978.30
2017-12-12T00:12:06.312Z,978.34
2017-12-12T00:13:06.329Z,978.36
2017-12-12T00:14:06.332Z,978.39
2017-12-12T00:15:06.348Z,978.40
2017-12-12T00:16:06.354Z,978.43
2017-12-12T00:17:06.370Z,978.46
2017-12-12T00:18:06.382Z,978.48
2017-12-12T00:19:06.386Z,978.50
2017-12-12T00:20:06.417Z,978.51
2017-12-12T00:21:06.410Z,978.54
2017-12-12T00:22:06.424Z,978.54
2017-12-12T00:23:06.428Z,978.58
2017-12-12T00:24:06.440Z,978.56
2017-12-12T00:25:06.455Z,978.57
2017-12-12T00:26:06.462Z,978.63
2017-12-12T00:27:06.473Z,978.65
2017-12-12T00:28:06.497Z,978.72
2017-12-12T00:29:06.498Z,978.72
2017-12-12T00:30:06.505Z,978.80
2017-12-12T00:31:06.518Z,978.80
2017-12-12T00:32:06.526Z,978.86
2017-12-12T00:33:06.541Z,978.93
2017-12-12T00:34:06.547Z,978.91
2017-12-12T00:35:06.559Z,978.98
2017-12-12T00:36:06.668Z,979.03
2017-12-12T00:37:06.580Z,979.01
2017-12-12T00:38:06.590Z,979.15
2017-12-12T00:39:06.600Z,979.15
2017-12-12T00:40:06.615Z,979.13
2017-12-12T00:41:06.622Z,979.20
2017-12-12T00:42:06.632Z,979.24
2017-12-12T00:43:06.643Z,979.27
2017-12-12T00:44:06.653Z,979.33
2017-12-12T00:45:06.665Z,979.40
2017-12-12T00:46:06.678Z,979.45
2017-12-12T00:47:06.684Z,979.48
2017-12-12T00:48:06.699Z,979.51
2017-12-12T00:49:06.706Z,979.53
2017-12-12T00:50:06.720Z,979.57
2017-12-12T00:51:06.727Z,979.60
2017-12-12T00:52:06.739Z,979.60
2017-12-12T00:53:06.750Z,979.66
2017-12-12T00:54:06.759Z,979.64
2017-12-12T00:55:06.770Z,979.63
2017-12-12T00:56:06.779Z,979.72
2017-12-12T00:57:06.792Z,979.79
2017-12-12T00:58:06.801Z,979.82
2017-12-12T00:59:06.816Z,979.84
2017-12-12T01:00:06.829Z,979.87
2017-12-12T01:01:06.833Z,979.93
2017-12-12T01:02:06.849Z,979.90
2017-12-12T01:03:06.857Z,980.01
2017-12-12T01:04:06.865Z,979.98
2017-12-12T01:05:06.876Z,980.01
2017-12-12T01:06:06.885Z,980.07
2017-12-12T01:07:06.897Z,980.16
2017-12-12T01:08:06.908Z,980.13
2017-12-12T01:09:06.923Z,980.21
2017-12-12T01:10:06.928Z,980.25
2017-12-12T01:11:06.939Z,980.28
2017-12-12T01:12:06.949Z,980.34
2017-12-12T01:13:06.959Z,980.37
2017-12-12T01:14:06.970Z,980.48
2017-12-12T01:15:06.982Z,980.49
2017-12-12T01:16:06.994Z,980.51
2017-12-12T01:17:07.007Z,980.49
2017-12-12T01:18:07.014Z,980.53
2017-12-12T01:19:07.024Z,980.60
2017-12-12T01:20:07.031Z,980.67
2017-12-12T01:21:07.042Z,980.67
2017-12-12T01:22:07.056Z,980.72
2017-12-12T01:23:07.065Z,980.76
2017-12-12T01:24:07.074Z,980.87
2017-12-12T01:25:07.091Z,980.86
2017-12-12T01:26:07.093Z,980.92
2017-12-12T01:27:07.105Z,980.98
2017-12-12T01:28:07.115Z,981.01
2017-12-12T01:29:07.127Z,981.10
2017-12-12T01:30:07.141Z,981.05
2017-12-12T01:31:07.152Z,981.21
2017-12-12T01:32:07.175Z,981.22
2017-12-12T01:33:07.172Z,981.28
2017-12-12T01:34:07.175Z,981.27
2017-12-12T01:35:07.203Z,981.31
2017-12-12T01:36:07.196Z,981.36
2017-12-12T01:37:07.208Z,981.38
2017-12-12T01:38:07.220Z,981.42
2017-12-12T01:39:07.228Z,981.47
2017-12-12T01:40:07.238Z,981.48
2017-12-12T01:41:07.249Z,981.52
2017-12-12T01:42:07.259Z,981.44
2017-12-12T01:43:07.274Z,981.59
2017-12-12T01:44:07.280Z,981.61
2017-12-12T01:45:07.291Z,981.63
2017-12-12T01:46:07.300Z,981.67
2017-12-12T01:47:07.312Z,981.72
2017-12-12T01:48:07.321Z,981.73
2017-12-12T01:49:07.331Z,981.82
2017-12-12T01:50:07.342Z,981.89
2017-12-12T01:51:07.352Z,981.90
2017-12-12T01:52:07.377Z,981.89
2017-12-12T01:53:07.372Z,981.94
2017-12-12T01:54:07.382Z,981.99
2017-12-12T01:55:07.393Z,982.04
2017-12-12T01:56:07.407Z,982.09
2017-12-12T01:57:07.418Z,982.17
2017-12-12T01:58:07.427Z,982.15
2017-12-12T01:59:07.434Z,982.17
2017-12-12T02:00:07.445Z,982.20
2017-12-12T02:01:07.454Z,982.29
2017-12-12T02:02:07.463Z,982.30
2017-12-12T02:03:07.479Z,982.39
2017-12-12T02:04:07.483Z,982.37
2017-12-12T02:05:07.503Z,982.45
2017-12-12T02:06:07.506Z,982.49
2017-12-12T02:07:07.515Z,982.52
2017-12-12T02:08:07.523Z,982.55
2017-12-12T02:09:07.533Z,982.65
2017-12-12T02:10:07.557Z,982.66
2017-12-12T02:11:07.554Z,982.71
2017-12-12T02:12:07.573Z,982.76
2017-12-12T02:13:07.575Z,982.78
2017-12-12T02:14:07.584Z,982.81
2017-12-12T02:15:07.597Z,982.82
2017-12-12T02:16:07.610Z,982.84
2017-12-12T02:17:07.614Z,982.83
2017-12-12T02:18:07.626Z,982.90
2017-12-12T02:19:07.635Z,982.97
2017-12-12T02:20:07.644Z,982.99
2017-12-12T02:21:07.654Z,982.97
2017-12-12T02:22:07.665Z,983.06
2017-12-12T02:23:07.676Z,983.06
2017-12-12T02:24:07.687Z,983.14
2017-12-12T02:25:07.695Z,983.15
2017-12-12T02:26:07.710Z,983.17
2017-12-12T02:27:07.721Z,983.26
2017-12-12T02:28:07.727Z,983.30
2017-12-12T02:29:07.737Z,983.32
2017-12-12T02:30:07.749Z,983.37
2017-12-12T02:31:07.757Z,983.44
2017-12-12T02:32:07.767Z,983.47
2017-12-12T02:33:07.781Z,983.52
2017-12-12T02:34:07.787Z,983.58
2017-12-12T02:35:07.796Z,983.59
2017-12-12T02:36:07.807Z,983.69
2017-12-12T02:37:07.820Z,983.65
2017-12-12T02:38:07.828Z,983.68
2017-12-12T02:39:07.839Z,983.76
2017-12-12T02:40:07.852Z,983.73
2017-12-12T02:41:07.858Z,983.80
2017-12-12T02:42:07.869Z,983.84
2017-12-12T02:43:07.880Z,983.81
2017-12-12T02:44:07.888Z,983.88
2017-12-12T02:45:07.899Z,983.90
2017-12-12T02:46:07.906Z,983.91
2017-12-12T02:47:07.917Z,983.95
2017-12-12T02:48:07.930Z,984.03
2017-12-12T02:49:07.944Z,984.04
2017-12-12T02:50:07.950Z,984.08
2017-12-12T02:51:07.958Z,984.12
2017-12-12T02:52:07.973Z,984.14
2017-12-12T02:53:07.980Z,984.19
2017-12-12T02:54:07.986Z,984.25
2017-12-12T02:55:07.995Z,984.29
2017-12-12T02:56:08.011Z,984.37
2017-12-12T02:57:08.022Z,984.37
2017-12-12T02:58:08.029Z,984.44
2017-12-12T02:59:08.038Z,984.44
2017-12-12T03:00:08.051Z,984.47
2017-12-12T03:01:08.058Z,984.58
2017-12-12T03:02:08.068Z,984.62
2017-12-12T03:03:08.077Z,984.61
2017-12-12T03:04:08.090Z,984.64
2017-12-12T03:05:08.119Z,984.62
2017-12-12T03:06:08.108Z,984.67
2017-12-12T03:07:08.121Z,984.72
2017-12-12T03:08:08.129Z,984.75
2017-12-12T03:09:08.139Z,984.81
2017-12-12T03:10:08.147Z,984.85
2017-12-12T03:11:08.157Z,984.86
2017-12-12T03:12:08.169Z,984.89
2017-12-12T03:13:08.177Z,984.89
2017-12-12T03:14:08.188Z,984.99
2017-12-12T03:15:08.198Z,984.98
2017-12-12T03:16:08.206Z,985.01
2017-12-12T03:17:08.218Z,985.10
2017-12-12T03:18:08.233Z,985.04
2017-12-12T03:19:08.252Z,985.11
2017-12-12T03:20:08.249Z,985.14
2017-12-12T03:21:08.254Z,985.22
2017-12-12T03:22:08.274Z,985.20
2017-12-12T03:23:08.277Z,985.28
2017-12-12T03:24:08.284Z,985.34
2017-12-12T03:25:08.297Z,985.37
2017-12-12T03:26:08.305Z,985.44
2017-12-12T03:27:08.318Z,985.42
2017-12-12T03:28:08.323Z,985.52
2017-12-12T03:29:08.347Z,985.53
2017-12-12T03:30:08.346Z,985.58
2017-12-12T03:31:08.366Z,985.56
2017-12-12T03:32:08.362Z,985.66
2017-12-12T03:33:08.371Z,985.68
2017-12-12T03:34:08.381Z,985.73
2017-12-12T03:35:08.390Z,985.74
2017-12-12T03:36:08.401Z,985.80
2017-12-12T03:37:08.415Z,985.84
2017-12-12T03:38:08.432Z,985.94
2017-12-12T03:39:08.428Z,986.03
2017-12-12T03:40:08.439Z,986.00
2017-12-12T03:41:08.449Z,986.10
2017-12-12T03:42:08.463Z,986.16
2017-12-12T03:43:08.467Z,986.15
2017-12-12T03:44:08.480Z,986.23
2017-12-12T03:45:08.495Z,986.26
2017-12-12T03:46:08.494Z,986.35
2017-12-12T03:47:08.503Z,986.38
2017-12-12T03:48:08.516Z,986.36
2017-12-12T03:49:08.523Z,986.39
2017-12-12T03:50:08.531Z,986.44
2017-12-12T03:51:08.541Z,986.47
2017-12-12T03:52:08.556Z,986.54
2017-12-12T03:53:08.560Z,986.57
2017-12-12T03:54:08.574Z,986.57
2017-12-12T03:55:08.579Z,986.61
2017-12-12T03:56:08.594Z,986.67
2017-12-12T03:57:08.602Z,986.67
2017-12-12T03:58:08.607Z,986.78
2017-12-12T03:59:08.618Z,986.77
2017-12-12T04:00:08.626Z,986.85
2017-12-12T04:01:08.636Z,986.84
2017-12-12T04:02:08.648Z,986.95
2017-12-12T04:03:08.666Z,986.95
2017-12-12T04:04:08.671Z,987.07
2017-12-12T04:05:08.675Z,987.03
2017-12-12T04:06:08.681Z,987.15
2017-12-12T04:07:08.692Z,987.14
2017-12-12T04:08:08.702Z,987.20
2017-12-12T04:09:08.715Z,987.19
2017-12-12T04:10:08.758Z,987.35
2017-12-12T04:11:08.733Z,987.39
2017-12-12T04:12:08.743Z,987.44
2017-12-12T04:13:08.752Z,987.41
2017-12-12T04:14:08.759Z,987.41
2017-12-12T04:15:08.766Z,987.45
2017-12-12T04:16:08.780Z,987.48
2017-12-12T04:17:08.792Z,987.61
2017-12-12T04:18:08.801Z,987.56
2017-12-12T04:19:08.804Z,987.72
2017-12-12T04:20:08.818Z,987.62
2017-12-12T04:21:08.831Z,987.68
2017-12-12T04:22:08.836Z,987.69
2017-12-12T04:23:08.845Z,987.76
2017-12-12T04:24:08.856Z,987.82
2017-12-12T04:25:08.863Z,987.85
2017-12-12T04:26:08.874Z,987.89
2017-12-12T04:27:08.883Z,987.89
2017-12-12T04:28:08.898Z,988.01
2017-12-12T04:29:08.908Z,988.04
2017-12-12T04:30:08.927Z,988.08
2017-12-12T04:31:08.922Z,988.05
2017-12-12T04:32:08.930Z,988.07
2017-12-12T04:33:08.943Z,988.10
2017-12-12T04:34:08.951Z,988.18
2017-12-12T04:35:08.956Z,988.22
2017-12-12T04:36:08.977Z,988.21
2017-12-12T04:37:08.983Z,988.29
2017-12-12T04:38:08.990Z,988.29
2017-12-12T04:39:08.998Z,988.40
2017-12-12T04:40:09.006Z,988.43
2017-12-12T04:41:09.019Z,988.49
2017-12-12T04:42:09.036Z,988.58
2017-12-12T04:43:09.036Z,988.61
2017-12-12T04:44:09.049Z,988.62
2017-12-12T04:45:09.057Z,988.61
2017-12-12T04:46:09.067Z,988.76
2017-12-12T04:47:09.075Z,988.70
2017-12-12T04:48:09.084Z,988.80
2017-12-12T04:49:09.093Z,988.85
2017-12-12T04:50:09.101Z,988.95
2017-12-12T04:51:09.114Z,988.95
2017-12-12T04:52:09.146Z,988.89
2017-12-12T04:53:09.136Z,988.96
2017-12-12T04:54:09.137Z,989.11
2017-12-12T04:55:09.154Z,989.06
2017-12-12T04:56:09.168Z,989.21
2017-12-12T04:57:09.194Z,989.07
2017-12-12T04:58:09.181Z,989.17
2017-12-12T04:59:09.195Z,989.13
2017-12-12T05:00:09.199Z,989.20
2017-12-12T05:01:09.219Z,989.29
2017-12-12T05:02:09.219Z,989.43
2017-12-12T05:03:09.226Z,989.37
2017-12-12T05:04:09.237Z,989.43
2017-12-12T05:05:09.250Z,989.42
2017-12-12T05:06:09.256Z,989.55
2017-12-12T05:07:09.266Z,989.54
2017-12-12T05:08:09.273Z,989.57
2017-12-12T05:09:09.285Z,989.62
2017-12-12T05:10:09.290Z,989.67
2017-12-12T05:11:09.300Z,989.71
2017-12-12T05:12:09.311Z,989.76
2017-12-12T05:13:09.325Z,989.77
2017-12-12T05:14:09.328Z,989.80
2017-12-12T05:15:09.338Z,989.85
2017-12-12T05:16:09.356Z,989.89
2017-12-12T05:17:09.360Z,989.88
2017-12-12T05:18:09.373Z,989.92
2017-12-12T05:19:09.378Z,989.91
2017-12-12T05:20:09.386Z,990.03
2017-12-12T05:21:09.400Z,990.08
2017-12-12T05:22:09.406Z,990.11
2017-12-12T05:23:09.420Z,990.18
2017-12-12T05:24:09.425Z,990.19
2017-12-12T05:25:09.439Z,990.19
2017-12-12T05:26:09.450Z,990.23
2017-12-12T05:27:09.462Z,990.24
2017-12-12T05:28:09.471Z,990.31
2017-12-12T05:29:09.477Z,990.36
2017-12-12T05:30:09.482Z,990.37
2017-12-12T05:31:09.497Z,990.44
2017-12-12T05:32:09.504Z,990.47
2017-12-12T05:33:09.515Z,990.45
2017-12-12T05:34:09.519Z,990.51
2017-12-12T05:35:09.532Z,990.49
2017-12-12T05:36:09.546Z,990.61
2017-12-12T05:37:09.557Z,990.61
2017-12-12T05:38:09.556Z,990.61
2017-12-12T05:39:09.566Z,990.68
2017-12-12T05:40:09.585Z,990.65
2017-12-12T05:41:09.601Z,990.73
2017-12-12T05:42:09.594Z,990.76
2017-12-12T05:43:09.610Z,990.76
2017-12-12T05:44:09.614Z,990.81
2017-12-12T05:45:09.624Z,990.86
2017-12-12T05:46:09.629Z,990.83
2017-12-12T05:47:09.692Z,990.85
2017-12-12T05:48:09.652Z,990.90
2017-12-12T05:49:09.656Z,990.86
2017-12-12T05:50:09.664Z,990.94
2017-12-12T05:51:09.673Z,990.94
2017-12-12T05:52:09.682Z,991.00
2017-12-12T05:53:09.697Z,990.97
2017-12-12T05:54:09.702Z,991.01
2017-12-12T05:55:09.711Z,991.08
2017-12-12T05:56:09.720Z,991.12
2017-12-12T05:57:09.730Z,991.16
2017-12-12T05:58:09.768Z,991.12
2017-12-12T05:59:09.753Z,991.17
2017-12-12T06:00:09.757Z,991.17
2017-12-12T06:01:09.787Z,991.14
2017-12-12T06:02:09.784Z,991.29
2017-12-12T06:03:09.794Z,991.23
2017-12-12T06:04:09.795Z,991.22
2017-12-12T06:05:09.808Z,991.22
2017-12-12T06:06:09.814Z,991.30
2017-12-12T06:07:09.824Z,991.32
2017-12-12T06:08:09.839Z,991.37
2017-12-12T06:09:09.860Z,991.38
2017-12-12T06:10:09.859Z,991.46
2017-12-12T06:11:09.875Z,991.47
2017-12-12T06:12:09.885Z,991.46
2017-12-12T06:13:09.882Z,991.54
2017-12-12T06:14:09.890Z,991.59
2017-12-12T06:15:09.906Z,991.61
2017-12-12T06:16:09.920Z,991.57
2017-12-12T06:17:09.920Z,991.60
2017-12-12T06:18:09.934Z,991.61
2017-12-12T06:19:09.939Z,991.67
2017-12-12T06:20:09.950Z,991.71
2017-12-12T06:21:09.959Z,991.78
2017-12-12T06:22:09.969Z,991.76
2017-12-12T06:23:09.986Z,991.90
2017-12-12T06:24:09.994Z,991.86
2017-12-12T06:25:10.000Z,991.92
2017-12-12T06:26:10.017Z,991.95
2017-12-12T06:27:10.022Z,991.96
2017-12-12T06:28:10.028Z,992.02
2017-12-12T06:29:10.048Z,992.04
2017-12-12T06:30:10.086Z,992.05
2017-12-12T06:31:10.055Z,992.10
2017-12-12T06:32:10.076Z,992.14
2017-12-12T06:33:10.080Z,992.10
2017-12-12T06:34:10.087Z,992.18
2017-12-12T06:35:10.095Z,992.25
2017-12-12T06:36:10.104Z,992.22
2017-12-12T06:37:10.123Z,992.21
2017-12-12T06:38:10.122Z,992.25
2017-12-12T06:39:10.133Z,992.29
2017-12-12T06:40:10.142Z,992.33
2017-12-12T06:41:10.457Z,992.41
2017-12-12T06:42:10.160Z,992.40
2017-12-12T06:43:10.171Z,992.49
2017-12-12T06:44:10.182Z,992.48
2017-12-12T06:45:10.200Z,992.50
2017-12-12T06:46:10.198Z,992.52
2017-12-12T06:47:10.212Z,992.54
2017-12-12T06:48:10.223Z,992.63
2017-12-12T06:49:10.234Z,992.62
2017-12-12T06:50:10.250Z,992.60
2017-12-12T06:51:10.249Z,992.64
2017-12-12T06:52:10.264Z,992.66
2017-12-12T06:53:10.273Z,992.66
2017-12-12T06:54:10.281Z,992.67
2017-12-12T06:55:10.293Z,992.72
2017-12-12T06:56:10.303Z,992.76
2017-12-12T06:57:10.308Z,992.77
2017-12-12T06:58:10.322Z,992.84
2017-12-12T06:59:10.330Z,992.81
2017-12-12T07:00:10.346Z,993.00
2017-12-12T07:01:10.347Z,992.97
2017-12-12T07:02:10.355Z,993.03
2017-12-12T07:03:10.369Z,993.08
2017-12-12T07:04:10.378Z,993.02
2017-12-12T07:05:10.384Z,993.09
2017-12-12T07:06:10.397Z,993.14
2017-12-12T07:07:10.678Z,993.18
2017-12-12T07:09:10.428Z,993.27
2017-12-12T07:10:10.434Z,993.31
2017-12-12T07:11:10.468Z,993.31
2017-12-12T07:12:10.455Z,993.34
2017-12-12T07:13:10.467Z,993.36
2017-12-12T07:14:10.471Z,993.35
2017-12-12T07:15:10.486Z,993.42
2017-12-12T07:16:10.492Z,993.44
2017-12-12T07:17:10.502Z,993.45
2017-12-12T07:18:10.512Z,993.48
2017-12-12T07:19:10.525Z,993.53
2017-12-12T07:20:10.533Z,993.52
2017-12-12T07:21:10.541Z,993.58
2017-12-12T07:22:10.550Z,993.61
2017-12-12T07:23:10.560Z,993.69
2017-12-12T07:24:10.578Z,993.73
2017-12-12T07:25:10.581Z,993.76
2017-12-12T07:26:10.592Z,993.83
2017-12-12T07:27:10.608Z,993.81
2017-12-12T07:28:10.611Z,993.90
2017-12-12T07:29:10.621Z,993.90
2017-12-12T07:30:10.638Z,993.98
2017-12-12T07:31:10.640Z,993.96
2017-12-12T07:32:10.649Z,994.01
2017-12-12T07:33:10.664Z,994.02
2017-12-12T07:34:10.673Z,994.01
2017-12-12T07:35:11.568Z,994.07
2017-12-12T07:36:10.693Z,994.09
2017-12-12T07:37:10.702Z,994.04
2017-12-12T07:38:10.706Z,994.12
2017-12-12T07:39:10.738Z,994.19
2017-12-12T07:40:10.728Z,994.26
2017-12-12T07:41:10.737Z,994.20
2017-12-12T07:42:10.746Z,994.24
2017-12-12T07:43:10.756Z,994.24
2017-12-12T07:44:10.767Z,994.32
2017-12-12T07:45:10.776Z,994.32
2017-12-12T07:46:10.784Z,994.29
2017-12-12T07:47:10.813Z,994.31
2017-12-12T07:48:10.814Z,994.30
2017-12-12T07:49:10.817Z,994.35
2017-12-12T07:50:10.825Z,994.38
2017-12-12T07:51:10.834Z,994.37
2017-12-12T07:52:10.844Z,994.45
2017-12-12T07:53:10.858Z,994.43
2017-12-12T07:54:10.864Z,994.40
2017-12-12T07:55:10.874Z,994.47
2017-12-12T07:56:10.885Z,994.49
2017-12-12T07:57:10.917Z,994.55
2017-12-12T07:58:10.906Z,994.54
2017-12-12T07:59:10.915Z,994.61
2017-12-12T08:00:10.922Z,994.69
2017-12-12T08:01:10.930Z,994.67
2017-12-12T08:02:10.941Z,994.71
2017-12-12T08:03:10.949Z,994.72
2017-12-12T08:04:10.959Z,994.82
2017-12-12T08:05:10.984Z,994.84
2017-12-12T08:06:10.980Z,994.87
2017-12-12T08:07:10.991Z,994.86
2017-12-12T08:08:11.003Z,994.86
2017-12-12T08:09:11.016Z,994.90
2017-12-12T08:10:11.018Z,994.90
2017-12-12T08:11:11.030Z,994.94
2017-12-12T08:12:11.242Z,994.99
2017-12-12T08:13:11.052Z,995.02
2017-12-12T08:14:11.058Z,995.04
2017-12-12T08:15:11.074Z,995.06
2017-12-12T08:16:11.082Z,995.07
2017-12-12T08:17:11.088Z,995.09
2017-12-12T08:18:11.096Z,995.12
2017-12-12T08:19:11.110Z,995.12
2017-12-12T08:20:11.139Z,995.17
2017-12-12T08:21:12.290Z,995.18
2017-12-12T08:22:11.134Z,995.22
2017-12-12T08:23:11.142Z,995.30
2017-12-12T08:24:11.170Z,995.38
2017-12-12T08:25:11.164Z,995.46
2017-12-12T08:26:11.232Z,995.41
2017-12-12T08:27:11.183Z,995.42
2017-12-12T08:28:11.220Z,995.52
2017-12-12T08:29:11.203Z,995.56
2017-12-12T08:30:11.235Z,995.55
2017-12-12T08:31:11.222Z,995.59
2017-12-12T08:32:11.232Z,995.64
2017-12-12T08:33:11.244Z,995.63
2017-12-12T08:34:11.252Z,995.65
2017-12-12T08:35:11.267Z,995.67
2017-12-12T08:36:11.272Z,995.69
2017-12-12T08:37:11.291Z,995.74
2017-12-12T08:38:11.298Z,995.75
2017-12-12T08:39:11.314Z,995.75
2017-12-12T08:40:11.316Z,995.75
2017-12-12T08:41:11.323Z,995.81
2017-12-12T08:42:11.336Z,995.80
2017-12-12T08:44:11.961Z,995.82
2017-12-12T08:45:11.360Z,995.87
2017-12-12T08:46:11.374Z,995.91
2017-12-12T08:47:11.379Z,995.93
2017-12-12T08:48:11.389Z,995.93
2017-12-12T08:49:11.400Z,995.98
2017-12-12T08:50:11.782Z,996.02
2017-12-12T08:51:11.420Z,996.03
2017-12-12T08:52:11.431Z,995.98
2017-12-12T08:53:11.445Z,996.04
2017-12-12T08:54:11.457Z,996.09
2017-12-12T08:55:11.638Z,996.08
2017-12-12T08:56:11.519Z,996.15
2017-12-12T08:57:11.499Z,996.12
2017-12-12T08:58:11.530Z,996.08
2017-12-12T08:59:11.501Z,996.15
2017-12-12T09:00:11.509Z,996.13
2017-12-12T09:01:11.519Z,996.19
2017-12-12T09:02:11.528Z,996.20
2017-12-12T09:03:11.544Z,996.22
2017-12-12T09:04:11.553Z,996.24
2017-12-12T09:05:11.559Z,996.32
2017-12-12T09:06:11.572Z,996.30
2017-12-12T09:07:11.582Z,996.37
2017-12-12T09:08:11.602Z,996.38
2017-12-12T09:09:11.610Z,996.39
2017-12-12T09:10:11.610Z,996.36
2017-12-12T09:11:11.619Z,996.43
2017-12-12T09:12:11.631Z,996.40
2017-12-12T09:13:11.650Z,996.45
2017-12-12T09:14:11.646Z,996.59
2017-12-12T09:16:11.664Z,996.56
2017-12-12T09:17:11.678Z,996.49
2017-12-12T09:18:11.687Z,996.56
2017-12-12T09:19:11.696Z,996.60
2017-12-12T09:20:11.713Z,996.55
2017-12-12T09:21:11.717Z,996.63
2017-12-12T09:22:11.726Z,996.61
2017-12-12T09:23:11.736Z,996.65
2017-12-12T09:24:11.750Z,996.66
2017-12-12T09:25:11.760Z,996.70
2017-12-12T09:26:11.765Z,996.70
2017-12-12T09:27:11.776Z,996.84
2017-12-12T09:28:11.787Z,996.81
2017-12-12T09:29:11.804Z,996.86
2017-12-12T09:30:11.809Z,996.93
2017-12-12T09:31:11.822Z,996.94
2017-12-12T09:32:11.831Z,997.01
2017-12-12T09:33:11.834Z,997.02
2017-12-12T09:34:11.849Z,997.09
2017-12-12T09:35:11.857Z,997.04
2017-12-12T09:36:11.862Z,997.11
2017-12-12T09:37:11.875Z,997.09
2017-12-12T09:38:12.111Z,997.18
2017-12-12T09:39:11.900Z,997.16
2017-12-12T09:40:11.903Z,997.21
2017-12-12T09:41:11.913Z,997.36
2017-12-12T09:42:11.924Z,997.34
2017-12-12T09:43:11.933Z,997.33
2017-12-12T09:44:11.943Z,997.37
2017-12-12T09:45:11.952Z,997.45
2017-12-12T09:46:11.964Z,997.41
2017-12-12T09:48:11.984Z,997.42
2017-12-12T09:50:12.140Z,997.51
2017-12-12T09:51:12.023Z,997.52
2017-12-12T09:52:12.023Z,997.62
2017-12-12T09:53:12.191Z,997.61
2017-12-12T09:54:12.161Z,997.64
2017-12-12T09:55:12.061Z,997.61
2017-12-12T09:56:12.059Z,997.72
2017-12-12T09:57:12.070Z,997.74
2017-12-12T09:58:12.081Z,997.77
2017-12-12T09:59:12.098Z,997.79
2017-12-12T10:00:12.099Z,997.77
2017-12-12T10:01:12.120Z,997.86
2017-12-12T10:02:12.120Z,997.81
2017-12-12T10:03:12.141Z,997.83
2017-12-12T10:04:12.143Z,997.85
2017-12-12T10:05:12.148Z,997.81
2017-12-12T10:06:12.158Z,997.88
2017-12-12T10:07:12.166Z,997.90
2017-12-12T10:08:12.180Z,997.92
2017-12-12T10:09:12.201Z,997.89
2017-12-12T10:10:12.202Z,997.91
2017-12-12T10:11:12.218Z,997.97
2017-12-12T10:12:12.230Z,998.04
2017-12-12T10:13:12.231Z,998.01
2017-12-12T10:14:12.240Z,998.01
2017-12-12T10:15:12.247Z,998.03
2017-12-12T10:16:12.258Z,998.11
2017-12-12T10:17:12.266Z,998.13
2017-12-12T10:18:12.295Z,998.10
2017-12-12T10:19:12.288Z,998.08
2017-12-12T10:20:12.297Z,998.15
2017-12-12T10:21:12.309Z,998.16
2017-12-12T10:22:12.325Z,998.20
2017-12-12T10:23:12.328Z,998.14
2017-12-12T10:24:12.345Z,998.19
2017-12-12T10:25:12.355Z,998.24
2017-12-12T10:26:12.357Z,998.26
2017-12-12T10:27:12.381Z,998.27
2017-12-12T10:28:12.383Z,998.27
2017-12-12T10:29:12.410Z,998.21
2017-12-12T10:30:12.618Z,998.27
2017-12-12T10:31:12.405Z,998.33
2017-12-12T10:32:12.442Z,998.39
2017-12-12T10:33:12.664Z,998.38
2017-12-12T10:34:12.432Z,998.36
2017-12-12T10:35:12.442Z,998.41
2017-12-12T10:36:12.474Z,998.42
2017-12-12T10:37:12.585Z,998.45
2017-12-12T10:38:12.471Z,998.38
2017-12-12T10:39:12.557Z,998.41
2017-12-12T10:40:12.491Z,998.49
2017-12-12T10:41:12.506Z,998.48
2017-12-12T10:42:12.515Z,998.45
2017-12-12T10:43:12.530Z,998.49
2017-12-12T10:44:12.531Z,998.49
2017-12-12T10:45:12.540Z,998.58
2017-12-12T10:46:12.565Z,998.60
2017-12-12T10:47:12.559Z,998.66
2017-12-12T10:48:12.573Z,998.62
2017-12-12T10:49:12.582Z,998.70
2017-12-12T10:50:12.590Z,998.73
2017-12-12T10:51:12.599Z,998.73
2017-12-12T10:52:12.608Z,998.75
2017-12-12T10:53:12.719Z,998.69
2017-12-12T10:54:12.626Z,998.69
2017-12-12T10:55:12.637Z,998.75
2017-12-12T10:56:12.651Z,998.82
2017-12-12T10:57:12.656Z,998.88
2017-12-12T10:58:12.664Z,998.88
2017-12-12T10:59:12.674Z,998.95
2017-12-12T11:01:12.693Z,999.02
2017-12-12T11:02:12.704Z,998.88
2017-12-12T11:03:12.711Z,999.03
2017-12-12T11:04:12.721Z,998.96
2017-12-12T11:05:12.738Z,999.01
2017-12-12T11:06:12.740Z,999.05
2017-12-12T11:07:12.757Z,999.11
2017-12-12T11:08:12.761Z,999.20
2017-12-12T11:09:12.771Z,999.19
2017-12-12T11:10:12.778Z,999.24
2017-12-12T11:11:12.789Z,999.23
2017-12-12T11:12:12.798Z,999.23
2017-12-12T11:13:12.809Z,999.28
2017-12-12T11:14:12.816Z,999.30
2017-12-12T11:15:12.824Z,999.40
2017-12-12T11:16:12.833Z,999.36
2017-12-12T11:17:12.846Z,999.33
2017-12-12T11:18:12.858Z,999.31
2017-12-12T11:19:12.868Z,999.39
2017-12-12T11:20:12.874Z,999.36
2017-12-12T11:21:12.891Z,999.47
2017-12-12T11:22:12.892Z,999.39
2017-12-12T11:23:12.901Z,999.47
2017-12-12T11:24:12.912Z,999.49
2017-12-12T11:25:12.922Z,999.47
2017-12-12T11:26:12.932Z,999.49
2017-12-12T11:27:12.944Z,999.55
2017-12-12T11:28:12.950Z,999.53
2017-12-12T11:29:12.963Z,999.61
2017-12-12T11:30:13.077Z,999.60
2017-12-12T11:31:12.989Z,999.62
2017-12-12T11:32:12.987Z,999.67
2017-12-12T11:33:13.002Z,999.71
2017-12-12T11:34:13.008Z,999.70
2017-12-12T11:35:13.021Z,999.64
2017-12-12T11:36:13.029Z,999.76
2017-12-12T11:37:13.038Z,999.73
2017-12-12T11:38:13.047Z,999.71
2017-12-12T11:39:13.056Z,999.73
2017-12-12T11:40:13.069Z,999.82
2017-12-12T11:41:13.078Z,999.85
2017-12-12T11:42:13.085Z,999.79
2017-12-12T11:43:13.096Z,999.90
2017-12-12T11:44:13.105Z,999.87
2017-12-12T11:45:13.116Z,999.89
2017-12-12T11:46:13.131Z,999.89
2017-12-12T11:47:13.136Z,999.94
2017-12-12T11:48:13.154Z,999.94
2017-12-12T11:49:13.154Z,999.91
2017-12-12T11:50:13.168Z,999.98
2017-12-12T11:51:13.173Z,999.98
2017-12-12T11:52:13.183Z,999.98
2017-12-12T11:53:13.206Z,999.98
2017-12-12T11:54:13.323Z,1000.02
2017-12-12T11:55:13.214Z,999.97
2017-12-12T11:56:14.297Z,1000.04
2017-12-12T11:57:14.049Z,1000.12
2017-12-12T11:58:13.242Z,1000.07
2017-12-12T11:59:13.252Z,1000.09
2017-12-12T12:00:13.278Z,1000.09
2017-12-12T12:01:13.272Z,1000.12
2017-12-12T12:02:13.286Z,1000.07
2017-12-12T12:03:13.295Z,1000.10
2017-12-12T12:04:13.303Z,1000.12
2017-12-12T12:05:13.316Z,1000.11
2017-12-12T12:06:13.327Z,1000.14
2017-12-12T12:07:13.331Z,1000.15
2017-12-12T12:08:13.341Z,1000.19
2017-12-12T12:09:13.352Z,1000.18
2017-12-12T12:10:13.362Z,1000.20
2017-12-12T12:11:13.371Z,1000.24
2017-12-12T12:12:13.382Z,1000.26
2017-12-12T12:13:13.390Z,1000.21
2017-12-12T12:14:13.402Z,1000.28
2017-12-12T12:15:13.412Z,1000.29
2017-12-12T12:16:13.427Z,1000.30
2017-12-12T12:17:13.436Z,1000.30
2017-12-12T12:18:13.442Z,1000.31
2017-12-12T12:19:13.454Z,1000.36
2017-12-12T12:20:13.462Z,1000.37
2017-12-12T12:21:13.473Z,1000.39
2017-12-12T12:22:13.481Z,1000.37
2017-12-12T12:23:13.493Z,1000.38
2017-12-12T12:24:13.503Z,1000.41
2017-12-12T12:25:13.518Z,1000.45
2017-12-12T12:26:13.529Z,1000.45
2017-12-12T12:27:13.532Z,1000.48
2017-12-12T12:28:13.542Z,1000.55
2017-12-12T12:29:13.556Z,1000.57
2017-12-12T12:30:13.564Z,1000.60
2017-12-12T12:31:13.573Z,1000.67
2017-12-12T12:32:13.583Z,1000.69
2017-12-12T12:33:13.594Z,1000.67